Flight Track Log - Related Links

Times and Time Zones

All times are in EDT time to prevent confusion due to time zone crossing. See the N700QA flight status page for this flight to view local times or setup timezone preferences in your user account.

Time Position Orientation Groundspeed Altitude Reporting Facility
EDT Latitude Longitude Course Direction KTS MPH feet Rate Location/Type
Mon 09:17:39 PM 45.0000 -93.0000 55° Northeast 235 270 3,400  Level Minneapolis TRACON
Mon 09:18:45 PM 44.9833 -92.9000 103° East 251 289 5,200 2,095 Climbing Minneapolis TRACON
Mon 09:19:45 PM 44.9000 -92.9000 180° South 252 290 7,800 2,069 Climbing Minneapolis TRACON
Mon 09:21:10 PM 44.8147 -92.9139 187° South 277 319 10,200 1,878 Climbing Minneapolis Center
Mon 09:22:12 PM 44.8033 -93.0136 261° West 258 297 12,400 2,129 Climbing Minneapolis Center
Mon 09:23:14 PM 44.7956 -93.1128 264° West 256 295 14,600 2,032 Climbing Minneapolis Center
Mon 09:24:16 PM 44.7894 -93.2336 266° West 264 304 16,600 1,161 Climbing Minneapolis Center
Mon 09:25:18 PM 44.7844 -93.3375 266° West 283 326 17,000 242 Climbing Minneapolis Center
Mon 09:26:20 PM 44.7514 -93.4447 247° West 305 351 17,100 581 Climbing Minneapolis Center
Mon 09:27:22 PM 44.7144 -93.5617 246° West 329 379 18,200 1,210 Climbing Minneapolis Center
Mon 09:28:24 PM 44.6583 -93.6978 240° Southwest 340 391 19,600 1,161 Climbing Minneapolis Center
Mon 09:29:26 PM 44.5997 -93.8061 233° Southwest 348 400 20,600 1,161 Climbing Minneapolis Center
Mon 09:30:28 PM 44.5425 -93.9167 234° Southwest 352 405 22,000 1,548 Climbing Minneapolis Center
Mon 09:31:30 PM 44.4883 -94.0206 234° Southwest 336 387 23,800 1,258 Climbing Minneapolis Center
Mon 09:32:32 PM 44.4336 -94.1231 233° Southwest 329 379 24,600 829 Climbing Minneapolis Center
Mon 09:33:33 PM 44.3769 -94.2303 234° Southwest 340 391 25,500 976 Climbing Minneapolis Center
Mon 09:34:35 PM 44.3083 -94.3606 234° Southwest 348 400 26,600 968 Climbing Minneapolis Center
Mon 09:35:37 PM 44.2500 -94.4697 233° Southwest 351 404 27,500 919 Climbing Minneapolis Center
Mon 09:36:39 PM 44.1914 -94.5806 234° Southwest 354 407 28,500 871 Climbing Minneapolis Center
Mon 09:37:41 PM 44.1403 -94.6858 236° Southwest 354 407 29,300 878 Climbing Minneapolis Center
Mon 09:38:42 PM 44.1017 -94.8336 250° West 342 394 30,300 878 Climbing Minneapolis Center
Mon 09:39:44 PM 44.0669 -94.9558 248° West 342 394 31,100 774 Climbing Minneapolis Center
Mon 09:40:46 PM 44.0292 -95.0789 247° West 344 396 31,900 726 Climbing Minneapolis Center
Mon 09:41:48 PM 43.9939 -95.1997 248° West 341 392 32,600 732 Climbing Minneapolis Center
Mon 09:42:49 PM 43.9586 -95.3219 248° West 341 392 33,400 683 Climbing Minneapolis Center
Mon 09:43:51 PM 43.9228 -95.4425 248° West 339 390 34,000 629 Climbing Minneapolis Center
Mon 09:44:53 PM 43.8872 -95.5614 247° West 335 386 34,700 634 Climbing Minneapolis Center
Mon 09:45:54 PM 43.8533 -95.6800 248° West 332 382 35,300 537 Climbing Minneapolis Center
Mon 09:46:56 PM 43.8103 -95.8211 247° West 331 381 35,800 341 Climbing Minneapolis Center
Mon 09:47:57 PM 43.7744 -95.9375 247° West 329 379 36,000 98 Climbing Minneapolis Center
Mon 09:48:59 PM 43.7464 -96.0342 248° West 334 384 36,000 48 Level Minneapolis Center
Mon 09:50:01 PM 43.7011 -96.1825 247° West 346 398 36,100  Climbing Minneapolis Center
Mon 09:51:02 PM 43.6631 -96.3086 247° West 353 406 36,000  Descending Minneapolis Center
Mon 09:52:04 PM 43.6233 -96.4364 247° West 360 414 36,100 49 Climbing Minneapolis Center
Mon 09:53:05 PM 43.5844 -96.5656 247° West 364 419 36,100  Level Minneapolis Center
Mon 09:54:07 PM 43.5442 -96.6936 247° West 365 420 36,100  Level Minneapolis Center
Mon 09:55:08 PM 43.5047 -96.8231 247° West 365 420 36,100  Level Minneapolis Center
Mon 09:56:09 PM 43.4628 -96.9533 246° West 370 426 36,100  Level Minneapolis Center
Mon 09:57:11 PM 43.4139 -97.1092 247° West 370 426 36,100  Level Minneapolis Center
Mon 09:58:12 PM 43.3736 -97.2383 247° West 369 425 36,100  Level Minneapolis Center
Mon 09:59:14 PM 43.3319 -97.3653 246° West 367 422 36,100  Level Minneapolis Center
Mon 10:00:15 PM 43.2922 -97.4956 247° West 368 423 36,100 -49 Level Minneapolis Center
Mon 10:01:16 PM 43.2492 -97.6231 245° Southwest 369 425 36,000  Descending Minneapolis Center
Mon 10:02:17 PM 43.2089 -97.7503 247° West 367 422 36,100 49 Climbing Minneapolis Center
Mon 10:03:19 PM 43.1675 -97.8786 246° West 367 422 36,100  Level Minneapolis Center
Mon 10:04:20 PM 43.1264 -98.0069 246° West 368 423 36,100  Level Minneapolis Center
Mon 10:05:21 PM 43.0842 -98.1339 246° West 368 423 36,100  Level Minneapolis Center
Mon 10:06:22 PM 43.0353 -98.2864 246° West 366 421 36,100  Level Minneapolis Center
Mon 10:07:24 PM 42.9925 -98.4131 245° Southwest 367 422 36,100  Level Minneapolis Center
Mon 10:08:25 PM 42.9503 -98.5383 245° Southwest 366 421 36,100  Level Minneapolis Center
Mon 10:09:26 PM 42.9086 -98.6653 246° West 366 421 36,100  Level Minneapolis Center
Mon 10:10:27 PM 42.8711 -98.7775 246° West 368 423 36,100  Level Minneapolis Center
Mon 10:11:29 PM 42.8211 -98.9292 246° West 368 423 36,100  Level Minneapolis Center
Mon 10:12:30 PM 42.7775 -99.0561 245° Southwest 369 425 36,100  Level Minneapolis Center
Mon 10:13:31 PM 42.7358 -99.1828 246° West 368 423 36,100  Level Minneapolis Center
Mon 10:14:32 PM 42.6922 -99.3089 245° Southwest 369 425 36,100 -49 Level Minneapolis Center
Mon 10:15:33 PM 42.6497 -99.4336 245° Southwest 367 422 36,000  Descending Minneapolis Center
Mon 10:16:13 PM 42.6219 -99.5092 243° Southwest 368 423 36,100 59 Climbing Denver Center
Mon 10:17:15 PM 42.5792 -99.6372 246° West 370 426 36,100 -48 Level Denver Center
Mon 10:18:17 PM 42.5269 -99.7892 245° Southwest 372 428 36,000  Descending Denver Center
Mon 10:19:31 PM 42.4825 -99.9150 244° Southwest 372 428 36,100 44 Climbing Denver Center
Mon 10:20:33 PM 42.4317 -100.0600 245° Southwest 373 429 36,100  Level Denver Center
Mon 10:21:35 PM 42.3825 -100.2014 245° Southwest 374 430 36,100  Level Denver Center
Mon 10:22:37 PM 42.3397 -100.3219 244° Southwest 373 429 36,100  Level Denver Center
Mon 10:23:39 PM 42.2892 -100.4625 244° Southwest 373 429 36,100  Level Denver Center
Mon 10:24:41 PM 42.2464 -100.5847 245° Southwest 376 433 36,100  Level Denver Center
Mon 10:25:43 PM 42.1953 -100.7256 244° Southwest 375 432 36,100  Level Denver Center
Mon 10:26:56 PM 42.1517 -100.8472 244° Southwest 377 434 36,100  Level Denver Center
Mon 10:27:59 PM 42.0936 -101.0058 244° Southwest 372 428 36,100  Level Denver Center
Mon 10:29:01 PM 42.0503 -101.1272 244° Southwest 374 430 36,100  Level Denver Center
Mon 10:30:02 PM 41.9992 -101.2644 243° Southwest 370 426 36,100  Level Denver Center
Mon 10:31:04 PM 41.9556 -101.3836 244° Southwest 372 428 36,100  Level Denver Center
Mon 10:32:06 PM 41.9044 -101.5233 244° Southwest 372 428 36,100  Level Denver Center
Mon 10:33:08 PM 41.8619 -101.6403 244° Southwest 368 423 36,100  Level Denver Center
Mon 10:34:09 PM 41.8106 -101.7761 243° Southwest 368 423 36,100  Level Denver Center
Mon 10:35:11 PM 41.7661 -101.8936 243° Southwest 368 423 36,100  Level Denver Center
Mon 10:36:13 PM 41.7167 -102.0269 244° Southwest 359 413 36,100  Level Denver Center
Mon 10:37:26 PM 41.6744 -102.1411 244° Southwest 358 412 36,100  Level Denver Center
Mon 10:38:28 PM 41.6150 -102.2936 243° Southwest 362 417 36,100  Level Denver Center
Mon 10:39:30 PM 41.5722 -102.4072 243° Southwest 360 414 36,100  Level Denver Center
Mon 10:40:32 PM 41.5222 -102.5381 243° Southwest 357 411 36,100  Level Denver Center
Mon 10:41:33 PM 41.4750 -102.6611 243° Southwest 357 411 36,100  Level Denver Center
Mon 10:42:35 PM 41.4381 -102.7553 242° Southwest 358 412 36,100  Level Denver Center
Mon 10:43:37 PM 41.3881 -102.8867 243° Southwest 356 410 36,100  Level Denver Center
Mon 10:44:38 PM 41.3369 -103.0167 242° Southwest 354 407 36,100  Level Denver Center
Mon 10:45:52 PM 41.2942 -103.1275 243° Southwest 352 405 36,100  Level Denver Center
Mon 10:47:06 PM 41.2344 -103.2775 242° Southwest 359 413 36,100  Level Denver Center
Mon 10:48:08 PM 41.1772 -103.4264 243° Southwest 356 410 36,100  Level Denver Center
Mon 10:49:22 PM 41.1331 -103.5361 242° Southwest 353 406 36,100  Level Denver Center
Mon 10:50:24 PM 41.0739 -103.6853 242° Southwest 357 411 36,100  Level Denver Center
Mon 10:51:25 PM 41.0289 -103.7964 242° Southwest 358 412 36,100  Level Denver Center
Mon 10:52:39 PM 40.9858 -103.9050 242° Southwest 356 410 36,100  Level Denver Center
Mon 10:53:41 PM 40.9208 -104.0672 242° Southwest 357 411 36,100  Level Denver Center
Mon 10:54:43 PM 40.8736 -104.1822 242° Southwest 359 413 36,100  Level Denver Center
Mon 10:55:44 PM 40.8272 -104.2986 242° Southwest 361 415 36,100  Level Denver Center
Mon 10:56:46 PM 40.7797 -104.4139 241° Southwest 359 413 36,100  Level Denver Center
Mon 10:57:47 PM 40.7317 -104.5289 241° Southwest 360 414 36,100  Level Denver Center
Mon 10:58:49 PM 40.6831 -104.6514 242° Southwest 373 429 36,100  Level Denver Center
Mon 10:59:51 PM 40.6256 -104.7875 241° Southwest 360 414 36,100  Level Denver Center
Mon 11:00:52 PM 40.5769 -104.9056 242° Southwest 366 421 36,100  Level Denver Center
Mon 11:01:54 PM 40.5281 -105.0242 242° Southwest 368 423 36,100  Level Denver Center
Mon 11:02:55 PM 40.4789 -105.1436 242° Southwest 373 429 36,100  Level Denver Center
Mon 11:03:57 PM 40.4289 -105.2625 241° Southwest 375 432 36,100  Level Denver Center
Mon 11:04:59 PM 40.3794 -105.3800 241° Southwest 372 428 36,100  Level Denver Center
Mon 11:06:00 PM 40.3289 -105.4981 241° Southwest 372 428 36,100  Level Denver Center
Mon 11:07:02 PM 40.2689 -105.6381 241° Southwest 369 425 36,100  Level Denver Center
Mon 11:08:03 PM 40.2192 -105.7561 241° Southwest 372 428 36,100  Level Denver Center
Mon 11:09:05 PM 40.1686 -105.8728 240° Southwest 369 425 36,100  Level Denver Center
Mon 11:10:06 PM 40.1289 -105.9667 241° Southwest 370 426 36,100  Level Denver Center
Mon 11:11:08 PM 40.0678 -106.1047 240° Southwest 368 423 36,100  Level Denver Center
Mon 11:12:10 PM 40.0181 -106.2211 241° Southwest 368 423 36,100  Level Denver Center
Mon 11:13:11 PM 39.9678 -106.3367 240° Southwest 368 423 36,100  Level Denver Center
Mon 11:14:13 PM 39.9081 -106.4764 241° Southwest 368 423 36,100  Level Denver Center
Mon 11:15:15 PM 39.8644 -106.5792 241° Southwest 372 428 36,100  Level Denver Center
Mon 11:16:16 PM 39.8136 -106.6950 240° Southwest 370 426 36,100  Level Denver Center
Mon 11:17:18 PM 39.7503 -106.8344 239° Southwest 373 429 36,100  Level Denver Center
Mon 11:18:19 PM 39.6992 -106.9511 240° Southwest 378 435 36,100  Level Denver Center
Mon 11:19:21 PM 39.6453 -107.0700 240° Southwest 374 430 36,100  Level Denver Center
Mon 11:20:23 PM 39.5964 -107.1819 240° Southwest 373 429 36,100  Level Denver Center
Mon 11:21:24 PM 39.5375 -107.3122 240° Southwest 374 430 36,100  Level Denver Center
Mon 11:22:26 PM 39.4878 -107.4236 240° Southwest 373 429 36,100  Level Denver Center
Mon 11:23:27 PM 39.4281 -107.5536 239° Southwest 374 430 36,100  Level Denver Center
Mon 11:24:29 PM 39.3772 -107.6675 240° Southwest 380 437 36,100  Level Denver Center
Mon 11:25:31 PM 39.3267 -107.7789 240° Southwest 377 434 36,100  Level Denver Center
Mon 11:26:32 PM 39.2669 -107.9117 240° Southwest 380 437 36,100  Level Denver Center
Mon 11:27:34 PM 39.2153 -108.0242 239° Southwest 378 435 36,100  Level Denver Center
Mon 11:28:35 PM 39.1636 -108.1364 239° Southwest 379 436 36,100  Level Denver Center
Mon 11:29:37 PM 39.1036 -108.2661 239° Southwest 376 433 36,100  Level Denver Center
Mon 11:30:38 PM 39.0506 -108.3814 239° Southwest 388 447 36,100  Level Denver Center
Mon 11:31:40 PM 38.9900 -108.5108 239° Southwest 380 437 36,100  Level Denver Center
Mon 11:32:41 PM 38.9372 -108.6231 239° Southwest 380 437 36,100  Level Denver Center
Mon 11:33:43 PM 38.8858 -108.7344 239° Southwest 378 435 36,100  Level Denver Center
Mon 11:34:44 PM 38.8239 -108.8647 239° Southwest 380 437 36,100  Level Denver Center
Mon 11:35:45 PM 38.7717 -108.9767 239° Southwest 382 440 36,100  Level Denver Center
Mon 11:36:47 PM 38.7100 -109.1058 239° Southwest 379 436 36,100  Level Denver Center
Mon 11:37:48 PM 38.6575 -109.2186 239° Southwest 383 441 36,100  Level Denver Center
Mon 11:38:50 PM 38.6136 -109.3114 239° Southwest 381 438 36,100  Level Denver Center
Mon 11:39:51 PM 38.5411 -109.4558 237° Southwest 380 437 36,100  Level Denver Center
Mon 11:41:05 PM 38.4792 -109.5864 239° Southwest 381 438 36,100  Level Denver Center
Mon 11:42:07 PM 38.4167 -109.7153 238° Southwest 382 440 36,100  Level Denver Center
Mon 11:43:08 PM 38.3631 -109.8264 238° Southwest 383 441 36,100  Level Denver Center
Mon 11:44:10 PM 38.3003 -109.9550 238° Southwest 381 438 36,100  Level Denver Center
Mon 11:45:11 PM 38.2469 -110.0653 238° Southwest 382 440 36,100  Level Denver Center
Mon 11:46:08 PM 38.1939 -110.1769 239° Southwest 383 441 36,100  Level Salt Lake Center
Mon 11:47:09 PM 38.1400 -110.2872 238° Southwest 383 441 36,100  Level Salt Lake Center
Mon 11:48:11 PM 38.0758 -110.4156 238° Southwest 384 442 36,100  Level Salt Lake Center
Mon 11:49:17 PM 38.0111 -110.5431 237° Southwest 387 445 36,100  Level Denver Center
Mon 11:50:18 PM 37.9536 -110.6567 237° Southwest 386 444 36,100  Level Denver Center
Mon 11:51:19 PM 37.8969 -110.7717 238° Southwest 384 442 36,100  Level Denver Center
Mon 11:52:15 PM 37.8386 -110.8869 237° Southwest 388 447 36,100  Level Salt Lake Center
Mon 11:53:17 PM 37.7825 -111.0017 238° Southwest 385 443 36,100  Level Salt Lake Center
Mon 11:54:18 PM 37.7244 -111.1156 237° Southwest 386 444 36,100  Level Salt Lake Center
Mon 11:55:37 PM 37.6531 -111.2542 237° Southwest 393 452 36,100  Level Denver Center
Mon 11:56:39 PM 37.5944 -111.3678 237° Southwest 387 445 36,100  Level Denver Center
Mon 11:57:40 PM 37.5253 -111.5075 238° Southwest 392 451 36,100  Level Denver Center
Mon 11:58:41 PM 37.4650 -111.6217 236° Southwest 392 451 36,100 -49 Level Denver Center
Mon 11:59:43 PM 37.4072 -111.7381 238° Southwest 392 451 36,000 -52 Descending Denver Center
Tue 12:00:37 AM 37.3564 -111.8308 235° Southwest 394 453 36,000  Level Los Angeles Center
Tue 12:01:39 AM 37.2961 -111.9458 237° Southwest 394 453 36,000  Level Los Angeles Center
Tue 12:02:41 AM 37.2247 -112.0847 237° Southwest 394 453 36,000 44 Level Los Angeles Center
Tue 12:03:54 AM 37.1647 -112.2008 237° Southwest 395 455 36,100 44 Climbing Los Angeles Center
Tue 12:04:56 AM 37.0917 -112.3392 237° Southwest 396 456 36,100  Level Los Angeles Center
Tue 12:05:58 AM 37.0322 -112.4542 237° Southwest 392 451 36,100  Level Los Angeles Center
Tue 12:07:00 AM 36.9722 -112.5692 237° Southwest 393 452 36,100 -49 Level Los Angeles Center
Tue 12:08:01 AM 36.9122 -112.6822 236° Southwest 390 449 36,000 -49 Descending Los Angeles Center
Tue 12:09:03 AM 36.8528 -112.7956 237° Southwest 388 447 36,000 44 Level Los Angeles Center
Tue 12:10:17 AM 36.7792 -112.9347 237° Southwest 397 457 36,100 44 Climbing Los Angeles Center
Tue 12:11:18 AM 36.7175 -113.0494 236° Southwest 398 458 36,100 -49 Level Los Angeles Center
Tue 12:12:20 AM 36.6547 -113.1647 236° Southwest 401 461 36,000  Descending Los Angeles Center
Tue 12:13:21 AM 36.5794 -113.3019 236° Southwest 400 460 36,100 49 Climbing Los Angeles Center
Tue 12:14:23 AM 36.5181 -113.4181 237° Southwest 401 461 36,100 -49 Level Los Angeles Center
Tue 12:15:24 AM 36.4611 -113.5233 236° Southwest 398 458 36,000  Descending Los Angeles Center
Tue 12:16:26 AM 36.3997 -113.6389 237° Southwest 398 458 36,100 49 Climbing Los Angeles Center
Tue 12:17:27 AM 36.3369 -113.7531 236° Southwest 400 460 36,100  Level Los Angeles Center
Tue 12:18:29 AM 36.2611 -113.8903 236° Southwest 401 461 36,100 -49 Level Los Angeles Center
Tue 12:19:30 AM 36.1981 -114.0036 235° Southwest 400 460 36,000 -49 Descending Los Angeles Center
Tue 12:20:32 AM 36.1353 -114.1183 236° Southwest 402 463 36,000 49 Level Los Angeles Center
Tue 12:21:33 AM 36.0722 -114.2331 236° Southwest 402 463 36,100 49 Climbing Los Angeles Center
Tue 12:22:34 AM 36.0086 -114.3475 236° Southwest 404 465 36,100  Level Los Angeles Center
Tue 12:23:36 AM 35.9458 -114.4603 236° Southwest 399 459 36,100  Level Los Angeles Center
Tue 12:24:37 AM 35.8828 -114.5744 236° Southwest 400 460 36,100  Level Los Angeles Center
Tue 12:25:38 AM 35.8186 -114.6864 235° Southwest 398 458 36,100  Level Los Angeles Center
Tue 12:26:40 AM 35.7531 -114.7975 234° Southwest 397 457 36,100  Level Los Angeles Center
Tue 12:27:41 AM 35.6778 -114.8981 227° Southwest 396 456 36,100  Level Los Angeles Center
Tue 12:28:43 AM 35.6081 -115.0036 231° Southwest 397 457 36,100  Level Los Angeles Center
Tue 12:29:44 AM 35.5219 -115.1278 230° Southwest 396 456 36,100 -49 Level Los Angeles Center
Tue 12:30:45 AM 35.4489 -115.2322 229° Southwest 398 458 36,000 -49 Descending Los Angeles Center
Tue 12:31:46 AM 35.3769 -115.3336 229° Southwest 396 456 36,000 48 Level Los Angeles Center
Tue 12:32:49 AM 35.3044 -115.4361 229° Southwest 395 455 36,100 49 Climbing Los Angeles Center
Tue 12:33:49 AM 35.2325 -115.5364 229° Southwest 392 451 36,100 -496 Level Los Angeles Center
Tue 12:34:50 AM 35.1383 -115.5767 199° South 410 472 35,100 -1,073 Descending Los Angeles Center
Tue 12:35:52 AM 35.0244 -115.5856 184° South 411 473 33,900 -1,122 Descending Los Angeles Center
Tue 12:36:53 AM 34.9106 -115.5892 181° South 408 470 32,800 -1,220 Descending Los Angeles Center
Tue 12:37:55 AM 34.7725 -115.5919 181° South 412 474 31,400 -1,220 Descending Los Angeles Center
Tue 12:38:56 AM 34.6572 -115.5933 181° South 413 475 30,300 -1,131 Descending Los Angeles Center
Tue 12:39:57 AM 34.5503 -115.6400 200° South 422 486 29,100 -1,122 Descending Los Angeles Center
Tue 12:40:59 AM 34.5006 -115.7647 244° Southwest 423 487 28,000 -1,122 Descending Los Angeles Center
Tue 12:42:00 AM 34.4614 -115.8967 250° West 418 481 26,800 -1,131 Descending Los Angeles Center
Tue 12:43:01 AM 34.4197 -116.0314 249° West 421 484 25,700 -1,073 Descending Los Angeles Center
Tue 12:44:03 AM 34.3833 -116.1594 251° West 414 476 24,600 -829 Descending Los Angeles Center
Tue 12:45:04 AM 34.3469 -116.2878 251° West 406 467 24,000 -390 Descending Los Angeles Center
Tue 12:46:06 AM 34.3114 -116.4111 251° West 394 453 23,800 -634 Descending Los Angeles Center
Tue 12:47:07 AM 34.2669 -116.5611 250° West 393 452 22,700 -836 Descending Los Angeles Center
Tue 12:48:08 AM 34.2300 -116.6872 251° West 398 458 22,100 -683 Descending Los Angeles Center
Tue 12:49:10 AM 34.1931 -116.8122 250° West 394 453 21,300 -927 Descending Los Angeles Center
Tue 12:50:11 AM 34.1556 -116.9386 250° West 398 458 20,200 -1,082 Descending Los Angeles Center
Tue 12:51:12 AM 34.1217 -117.0517 250° West 356 410 19,100 -1,188 Descending Los Angeles Center
Tue 12:51:47 AM 34.1000 -117.1167 248° West 317 365 18,300 -1,685 Descending Southern California TRACON
Tue 12:52:41 AM 34.0667 -117.2167 248° West 342 394 16,600 -2,000 Descending Southern California TRACON
Tue 12:53:47 AM 34.0333 -117.3333 251° West 337 388 14,300 -1,600 Descending Southern California TRACON
Tue 12:54:41 AM 34.0333 -117.4167 270° West 307 353 13,400 -1,050 Descending Southern California TRACON
Tue 12:55:47 AM 34.0167 -117.5333 260° West 325 374 12,200 -619 Descending Southern California TRACON
Tue 12:56:47 AM 34.0167 -117.6500 270° West 349 402 12,100 -421 Descending Southern California TRACON
Tue 12:57:41 AM 34.0000 -117.7333 256° West 284 327 11,400 -1,053 Descending Southern California TRACON
Tue 12:58:41 AM 34.0000 -117.8333 270° West 289 333 10,100 -1,750 Descending Southern California TRACON
Tue 12:59:41 AM 33.9833 -117.9333 259° West 275 316 7,900 -1,439 Descending Southern California TRACON
Tue 01:01:00 AM 33.9672 -118.0950 263° West  Level FlightAware Approximate
Tue 01:02:47 AM 33.9667 -118.1667 259° West 211 243 4,200  Level Southern California TRACON
Tue 01:03:53 AM 33.9522 -118.2278 254° West 209 241 2,800 -1,172 Descending Los Angeles Center
Tue 01:04:55 AM 33.9464 -118.2900 264° West 198 228 1,700 -976 Descending Los Angeles Center
Tue 01:05:56 AM 33.9414 -118.3436 264° West 180 207 800 -885 Descending Los Angeles Center
Tue 01:08:00 AM 33.9333 -118.4000 259° West  Level FlightAware Approximate
Tue 01:09:00 AM 33.9425 -118.4081 259° West  Level Estimated
Tue 01:10:00 AM 33.9425 -118.4081 259° West  Level Estimated
Tue 01:11:00 AM 33.9425 -118.4081 259° West  Level Estimated
Tue 01:12:00 AM 33.9425 -118.4081 259° West  Level Estimated

Login

Don't have an account? Register now (free) for customized features, flight alerts, and more!